Airfield :
LOGIN :

Register | Disclaimer

   EN    FR    IT 

 










Legend :    VFR   Marginal VFR   IFR   Intensive IFR   Very Intensive IFR
Visi :
Ceiling :
>= 8 km
>= 3000ft
5 to 8 km
1000 to 3000 ft
1500m to 5 km
500 to 1000 ft
800 to 1500m
200 to 500 ft
< 800m
< 200 ft
Symbols :   Thunderstorms  Fog  Heavy snow  Heavy precipitations  Wind > 20 kt
SIGMETs :     Misc.  Thunderstorms  Icing  Turbulence  Mountain Waves  Volcanic Ashes







- Airport Elevation : 63 ft
- IATA code : BZM


EHWO - Woensdrecht Airbase

CURRENT METAR :
  • 171455Z AUTO 25007KT 170V290 9999 NCD 25/13 Q1017 BLU

EXPIRED METARs :
  • 171425Z AUTO 23006KT 170V270 9999 NCD 25/13 Q1017 BLU
  • 171355Z AUTO 24006KT 180V280 9999 FEW052 25/13 Q1017 BLU
  • 171345Z AUTO 21005G15KT 170V270 9999 FEW052 24/12 Q1018 BLU
  • 171325Z AUTO 22006KT 160V300 9999 NCD 25/13 Q1018 BLU 23010KT 9999 SCT045
  • 171255Z AUTO VRB08KT 9999 FEW047 SCT054 24/12 Q1018 BLU 23010KT 9999 SCT045
  • 171239Z AUTO 22006KT 130V260 9999 BKN046 BKN052 BKN270 25/14 Q1018 BLU 23010KT CAVOK
  • 171225Z AUTO 23005KT 130V270 9999 SCT045 BKN049 BKN053 23/13 Q1018 BLU 23010KT 9999 SCT050

TAF TAF EHWO
Valid from the 17 at 13:00 until the 18 at 01:00 UTC


171230Z 1713/1801 21005KT 9999 SCT045
BECMG 1715/1717 33005KT
BECMG 1717/1719 VRB03KT
No reported NOTAMs for that airfield.



MET'MAP, your aeronautical weather chart ! - Copyright ORBIFLY December 2007 - Disclaimer

ORBIFLY MET'MAP TEAM :

Programming & Development : Alexandra Zaïnal
Concept & Development : Baudouin d'Aumeries
Co-Development & Prog : Marc-Olivier Méhu
Technical & hardware support : Manuel Goepfert

Contact : metmap@orbifly.com




SOURCES & CREDITS :

   NOAA